Time;durP1;ratioP1;P1;durP2;ratioP2;P2;SDS_P1;SDS_P2;PMS_P1;PMS_P2;Temp;Humidity;BMP_temperature;BMP_pressure;BME280_temperature;BME280_humidity;BME280_pressure;Samples;Min_cycle;Max_cycle;Signal;HPM_P1;HPM_P2
2024/02/11 00:02:02;;;;;;;5.35;3.70;;;;;;;;;;5027993;28;20041;-63
2024/02/11 00:04:32;;;;;;;4.32;2.92;;;;;;;;;;5028021;28;20497;-60
2024/02/11 00:07:01;;;;;;;5.97;3.25;;;;;;;;;;5027858;28;20053;-60
2024/02/11 00:09:29;;;;;;;4.35;3.30;;;;;;;;;;5027180;28;20568;-63
2024/02/11 00:11:57;;;;;;;5.28;3.40;;;;;;;;;;5029265;28;20567;-63
2024/02/11 00:14:27;;;;;;;7.13;3.85;;;;;;;;;;5027932;28;20045;-61
2024/02/11 00:16:59;;;;;;;6.55;4.05;;;;;;;;;;5028848;28;20470;-60
2024/02/11 00:19:30;;;;;;;6.35;3.60;;;;;;;;;;5031779;28;20054;-62
2024/02/11 00:22:01;;;;;;;5.90;3.83;;;;;;;;;;5031479;28;20050;-63
2024/02/11 00:24:30;;;;;;;6.32;3.58;;;;;;;;;;5031444;28;20048;-66
2024/02/11 00:26:59;;;;;;;6.10;3.47;;;;;;;;;;5029670;28;20555;-60
2024/02/11 00:29:27;;;;;;;6.60;3.70;;;;;;;;;;5032023;28;20755;-60
2024/02/11 00:31:57;;;;;;;5.38;3.40;;;;;;;;;;5031008;28;20459;-62
2024/02/11 00:34:25;;;;;;;4.55;3.08;;;;;;;;;;5032216;28;20056;-63
2024/02/11 00:36:54;;;;;;;4.68;2.75;;;;;;;;;;5031642;28;20053;-64
2024/02/11 00:39:24;;;;;;;5.47;3.05;;;;;;;;;;5040105;28;20045;-63
2024/02/11 00:41:53;;;;;;;4.03;3.00;;;;;;;;;;5031351;28;20050;-60
2024/02/11 00:44:21;;;;;;;5.07;2.65;;;;;;;;;;5031793;28;20430;-63
2024/02/11 00:46:49;;;;;;;3.72;2.70;;;;;;;;;;5028663;28;20053;-63
2024/02/11 00:49:18;;;;;;;6.22;3.17;;;;;;;;;;5022969;28;20057;-62
2024/02/11 00:51:48;;;;;;;4.53;2.75;;;;;;;;;;5032098;28;20494;-61
2024/02/11 00:54:16;;;;;;;5.47;2.75;;;;;;;;;;5040381;28;20344;-59
2024/02/11 00:56:46;;;;;;;5.45;3.13;;;;;;;;;;5031328;28;20482;-60
2024/02/11 00:59:15;;;;;;;3.97;2.33;;;;;;;;;;5030424;28;20564;-61
2024/02/11 01:01:44;;;;;;;4.50;2.92;;;;;;;;;;5029598;28;20077;-64
2024/02/11 01:04:12;;;;;;;3.67;2.40;;;;;;;;;;5037739;28;20069;-65
2024/02/11 01:06:41;;;;;;;4.15;2.47;;;;;;;;;;5030335;28;20061;-61
2024/02/11 01:09:10;;;;;;;3.85;2.75;;;;;;;;;;5029951;28;20049;-66
2024/02/11 01:11:38;;;;;;;4.80;2.65;;;;;;;;;;5029768;28;20122;-63
2024/02/11 01:14:08;;;;;;;4.70;2.55;;;;;;;;;;5029986;28;20049;-62
2024/02/11 01:16:36;;;;;;;3.38;2.33;;;;;;;;;;5030615;28;20052;-61
2024/02/11 01:19:05;;;;;;;4.35;2.70;;;;;;;;;;5027138;28;20054;-60
2024/02/11 01:21:35;;;;;;;3.13;2.30;;;;;;;;;;5030963;28;20457;-62
2024/02/11 01:24:04;;;;;;;4.63;2.80;;;;;;;;;;5026673;28;20049;-61
2024/02/11 01:26:33;;;;;;;2.97;2.13;;;;;;;;;;5028236;28;20049;-66
2024/02/11 01:29:03;;;;;;;4.55;2.55;;;;;;;;;;5029172;28;20058;-65
2024/02/11 01:31:34;;;;;;;2.65;2.17;;;;;;;;;;5031446;28;20046;-60
2024/02/11 01:34:05;;;;;;;4.47;2.63;;;;;;;;;;5031099;28;20200;-61
2024/02/11 01:36:33;;;;;;;4.13;2.60;;;;;;;;;;5030788;28;20375;-63
2024/02/11 01:39:02;;;;;;;3.45;2.10;;;;;;;;;;5029800;28;20479;-62
2024/02/11 01:41:30;;;;;;;3.33;2.25;;;;;;;;;;5031143;28;20058;-63
2024/02/11 01:44:00;;;;;;;3.40;2.35;;;;;;;;;;5030553;28;20073;-61
2024/02/11 01:46:28;;;;;;;4.72;2.88;;;;;;;;;;5024358;28;20081;-64
2024/02/11 01:49:02;;;;;;;5.05;2.70;;;;;;;;;;5029111;28;20046;-63
2024/02/11 01:51:32;;;;;;;4.93;2.55;;;;;;;;;;5030195;28;20053;-60
2024/02/11 01:54:01;;;;;;;4.18;2.58;;;;;;;;;;5029334;28;20045;-61
2024/02/11 01:56:30;;;;;;;3.85;2.60;;;;;;;;;;5022144;28;20052;-60
2024/02/11 01:58:58;;;;;;;4.05;2.55;;;;;;;;;;5029548;28;20053;-61
2024/02/11 02:01:27;;;;;;;4.10;2.67;;;;;;;;;;5030988;28;20084;-62
2024/02/11 02:03:57;;;;;;;4.00;2.60;;;;;;;;;;5029504;28;20068;-61
2024/02/11 02:06:27;;;;;;;4.55;3.20;;;;;;;;;;5029994;28;20053;-61
2024/02/11 02:08:57;;;;;;;3.80;2.65;;;;;;;;;;5028409;28;20049;-60
2024/02/11 02:11:26;;;;;;;3.97;2.90;;;;;;;;;;5030264;28;20491;-60
2024/02/11 02:13:54;;;;;;;4.47;3.20;;;;;;;;;;5029848;28;20046;-60
2024/02/11 02:16:23;;;;;;;3.58;2.45;;;;;;;;;;5029312;28;20128;-60
2024/02/11 02:18:53;;;;;;;3.67;2.90;;;;;;;;;;5028168;28;20099;-66
2024/02/11 02:21:25;;;;;;;4.38;2.80;;;;;;;;;;5028433;28;20053;-60
2024/02/11 02:23:54;;;;;;;4.35;3.15;;;;;;;;;;5027923;28;20083;-60
2024/02/11 02:26:23;;;;;;;5.03;2.90;;;;;;;;;;5027253;28;20045;-61
2024/02/11 02:28:51;;;;;;;5.05;3.00;;;;;;;;;;5028835;28;20045;-62
2024/02/11 02:31:21;;;;;;;5.72;3.42;;;;;;;;;;5029214;28;20053;-62
2024/02/11 02:33:50;;;;;;;5.65;2.90;;;;;;;;;;5020229;28;20050;-60
2024/02/11 02:36:19;;;;;;;5.03;3.13;;;;;;;;;;5027595;28;20612;-61
2024/02/11 02:38:47;;;;;;;4.35;2.90;;;;;;;;;;5027593;28;20080;-60
2024/02/11 02:41:17;;;;;;;7.90;3.58;;;;;;;;;;5028008;28;20119;-61
2024/02/11 02:43:46;;;;;;;4.43;3.17;;;;;;;;;;5023148;28;20049;-61
2024/02/11 02:46:15;;;;;;;6.43;3.60;;;;;;;;;;5028937;28;20042;-60
2024/02/11 02:48:43;;;;;;;6.18;3.20;;;;;;;;;;5028418;28;20046;-61
2024/02/11 02:51:12;;;;;;;5.60;3.15;;;;;;;;;;5027757;28;20563;-61
2024/02/11 02:53:41;;;;;;;6.07;3.13;;;;;;;;;;5026811;28;20300;-61
2024/02/11 02:56:10;;;;;;;5.78;3.03;;;;;;;;;;5028622;28;20055;-62
2024/02/11 02:58:39;;;;;;;6.45;3.20;;;;;;;;;;5028430;28;20068;-61
2024/02/11 03:01:08;;;;;;;6.03;3.55;;;;;;;;;;5023035;28;20072;-62
2024/02/11 03:03:36;;;;;;;4.78;3.28;;;;;;;;;;5026196;28;20056;-60
2024/02/11 03:06:05;;;;;;;5.53;3.67;;;;;;;;;;5028281;28;20091;-66
2024/02/11 03:08:33;;;;;;;6.68;4.07;;;;;;;;;;5027781;28;20149;-62
2024/02/11 03:11:02;;;;;;;4.10;3.38;;;;;;;;;;5027778;28;20045;-61
2024/02/11 03:13:30;;;;;;;5.07;3.85;;;;;;;;;;5031262;28;20111;-61
2024/02/11 03:16:00;;;;;;;5.30;3.67;;;;;;;;;;5028514;28;20045;-60
2024/02/11 03:18:28;;;;;;;6.78;3.90;;;;;;;;;;5027581;28;20049;-64
2024/02/11 03:20:58;;;;;;;5.82;3.90;;;;;;;;;;5026513;28;20056;-62
2024/02/11 03:23:27;;;;;;;7.25;4.45;;;;;;;;;;5028201;28;20103;-61
2024/02/11 03:25:55;;;;;;;5.82;4.25;;;;;;;;;;5030674;28;20050;-61
2024/02/11 03:28:24;;;;;;;6.00;3.78;;;;;;;;;;5027670;28;20505;-62
2024/02/11 03:30:52;;;;;;;6.22;4.40;;;;;;;;;;5030262;28;20509;-62
2024/02/11 03:33:22;;;;;;;5.50;3.95;;;;;;;;;;5029672;28;20111;-62
2024/02/11 03:35:50;;;;;;;7.38;4.43;;;;;;;;;;5027636;28;20056;-61
2024/02/11 03:38:19;;;;;;;6.95;4.38;;;;;;;;;;5028191;28;20049;-62
2024/02/11 03:40:48;;;;;;;7.63;4.82;;;;;;;;;;5022105;28;20089;-62
2024/02/11 03:43:16;;;;;;;7.15;4.22;;;;;;;;;;5027696;28;20056;-63
2024/02/11 03:45:44;;;;;;;7.10;5.05;;;;;;;;;;5031871;28;20365;-65
2024/02/11 03:48:13;;;;;;;6.97;4.57;;;;;;;;;;5028844;28;20053;-61
2024/02/11 03:50:43;;;;;;;6.63;4.32;;;;;;;;;;5028633;28;20053;-64
2024/02/11 03:53:11;;;;;;;7.82;4.60;;;;;;;;;;5026074;28;20129;-62
2024/02/11 03:55:39;;;;;;;7.10;4.88;;;;;;;;;;5031653;28;20072;-63
2024/02/11 03:58:08;;;;;;;6.32;4.60;;;;;;;;;;5029076;28;20049;-63
2024/02/11 04:00:36;;;;;;;8.05;4.75;;;;;;;;;;5029934;28;20085;-58
2024/02/11 04:03:09;;;;;;;7.97;4.97;;;;;;;;;;5032548;28;20049;-61
2024/02/11 04:05:39;;;;;;;7.45;5.15;;;;;;;;;;5025924;28;20057;-64
2024/02/11 04:08:11;;;;;;;6.45;4.47;;;;;;;;;;5027046;28;20049;-63
2024/02/11 04:10:40;;;;;;;9.05;5.15;;;;;;;;;;5030062;28;20077;-61
2024/02/11 04:13:09;;;;;;;6.72;4.43;;;;;;;;;;5032687;28;20128;-61
2024/02/11 04:15:38;;;;;;;5.93;4.03;;;;;;;;;;5032112;28;20211;-61
2024/02/11 04:18:10;;;;;;;5.68;4.32;;;;;;;;;;5032002;28;20107;-62
2024/02/11 04:20:39;;;;;;;7.07;4.82;;;;;;;;;;5030616;28;20045;-64
2024/02/11 04:23:09;;;;;;;6.57;4.50;;;;;;;;;;5029499;28;20053;-63
2024/02/11 04:25:39;;;;;;;7.30;4.40;;;;;;;;;;5030839;28;20442;-66
2024/02/11 04:28:09;;;;;;;7.35;4.70;;;;;;;;;;5032452;28;20562;-65
2024/02/11 04:30:38;;;;;;;7.00;4.22;;;;;;;;;;5035262;28;20139;-65
2024/02/11 04:33:07;;;;;;;6.97;4.22;;;;;;;;;;5031423;28;20499;-61
2024/02/11 04:35:36;;;;;;;7.10;4.40;;;;;;;;;;5030815;28;20084;-60
2024/02/11 04:38:08;;;;;;;6.82;4.35;;;;;;;;;;5031983;28;20103;-60
2024/02/11 04:40:38;;;;;;;5.30;3.60;;;;;;;;;;5030320;28;20391;-62
2024/02/11 04:43:06;;;;;;;7.38;4.43;;;;;;;;;;5030124;28;20050;-62
2024/02/11 04:45:37;;;;;;;6.82;4.32;;;;;;;;;;5030473;28;20092;-61
2024/02/11 04:48:09;;;;;;;7.43;4.38;;;;;;;;;;5031312;28;20057;-60
2024/02/11 04:50:38;;;;;;;5.38;3.45;;;;;;;;;;5029088;28;20510;-60
2024/02/11 04:53:09;;;;;;;8.20;4.90;;;;;;;;;;5031380;28;20402;-62
2024/02/11 04:55:43;;;;;;;7.45;3.83;;;;;;;;;;5028919;28;20203;-62
2024/02/11 04:58:15;;;;;;;5.30;3.50;;;;;;;;;;5029988;28;20494;-62
2024/02/11 05:00:46;;;;;;;2.80;2.08;;;;;;;;;;5021045;28;20423;-60
2024/02/11 05:03:17;;;;;;;3.38;1.60;;;;;;;;;;5030089;28;20061;-61
2024/02/11 05:05:47;;;;;;;1.58;1.10;;;;;;;;;;5029847;28;20058;-62
2024/02/11 05:08:17;;;;;;;1.23;0.70;;;;;;;;;;5027809;28;20156;-62
2024/02/11 05:10:51;;;;;;;1.15;0.60;;;;;;;;;;5028835;28;20133;-62
2024/02/11 05:13:22;;;;;;;0.70;0.60;;;;;;;;;;5031002;28;20136;-62
2024/02/11 05:15:50;;;;;;;0.50;0.50;;;;;;;;;;5036488;28;20107;-62
2024/02/11 05:18:19;;;;;;;0.40;0.40;;;;;;;;;;5024382;28;20670;-64
2024/02/11 05:20:48;;;;;;;0.43;0.43;;;;;;;;;;5025395;28;20049;-62
2024/02/11 05:23:19;;;;;;;0.40;0.40;;;;;;;;;;5028364;28;20045;-61
2024/02/11 05:25:51;;;;;;;0.35;0.35;;;;;;;;;;5028371;28;20050;-61
2024/02/11 05:28:19;;;;;;;0.35;0.35;;;;;;;;;;5029597;28;20053;-63
2024/02/11 05:30:48;;;;;;;0.30;0.30;;;;;;;;;;5024041;28;20146;-63
2024/02/11 05:33:20;;;;;;;0.40;0.40;;;;;;;;;;5029244;28;20337;-62
2024/02/11 05:35:51;;;;;;;0.40;0.40;;;;;;;;;;5030457;28;20499;-61
2024/02/11 05:38:21;;;;;;;0.55;0.40;;;;;;;;;;5035328;28;20099;-61
2024/02/11 05:40:56;;;;;;;0.50;0.50;;;;;;;;;;5034325;28;20449;-62
2024/02/11 05:43:26;;;;;;;2.00;0.40;;;;;;;;;;5029924;28;20050;-61
2024/02/11 05:45:55;;;;;;;0.32;0.32;;;;;;;;;;5030078;28;20045;-60
2024/02/11 05:48:24;;;;;;;0.40;0.40;;;;;;;;;;5030135;28;20501;-61
2024/02/11 05:50:53;;;;;;;0.40;0.40;;;;;;;;;;5022042;28;20045;-64
2024/02/11 05:53:21;;;;;;;1.35;0.40;;;;;;;;;;5028834;28;20510;-63
2024/02/11 05:55:52;;;;;;;0.45;0.45;;;;;;;;;;5029820;28;20073;-63
2024/02/11 05:58:23;;;;;;;0.38;0.38;;;;;;;;;;5027963;28;20060;-66
2024/02/11 06:00:51;;;;;;;0.47;0.47;;;;;;;;;;5026748;28;20099;-60
2024/02/11 06:03:20;;;;;;;0.45;0.45;;;;;;;;;;5027898;28;20049;-60
2024/02/11 06:05:50;;;;;;;0.40;0.40;;;;;;;;;;5029483;28;20057;-63
2024/02/11 06:08:20;;;;;;;0.50;0.50;;;;;;;;;;5027054;28;20065;-64
2024/02/11 06:10:49;;;;;;;0.40;0.40;;;;;;;;;;5028646;28;20061;-63
2024/02/11 06:13:18;;;;;;;0.40;0.40;;;;;;;;;;5029406;28;20053;-62
2024/02/11 06:15:47;;;;;;;0.50;0.50;;;;;;;;;;5028655;28;20057;-61
2024/02/11 06:18:17;;;;;;;0.40;0.40;;;;;;;;;;5022944;28;20042;-63
2024/02/11 06:20:46;;;;;;;0.60;0.60;;;;;;;;;;5028355;28;20056;-61
2024/02/11 06:23:15;;;;;;;0.50;0.50;;;;;;;;;;5028483;28;20041;-61
2024/02/11 06:25:44;;;;;;;0.70;0.70;;;;;;;;;;5028353;28;20057;-60
2024/02/11 06:28:13;;;;;;;0.60;0.60;;;;;;;;;;5029745;28;20041;-62
2024/02/11 06:30:42;;;;;;;0.60;0.60;;;;;;;;;;5028780;28;20146;-63
2024/02/11 06:33:12;;;;;;;0.55;0.55;;;;;;;;;;5038237;28;20053;-62
2024/02/11 06:35:40;;;;;;;0.70;0.70;;;;;;;;;;5028080;28;20045;-60
2024/02/11 06:38:09;;;;;;;0.60;0.60;;;;;;;;;;5026817;28;20095;-62
2024/02/11 06:40:38;;;;;;;0.60;0.60;;;;;;;;;;5031742;28;20053;-60
2024/02/11 06:43:11;;;;;;;1.80;0.73;;;;;;;;;;5028305;28;20080;-61
2024/02/11 06:45:45;;;;;;;0.70;0.70;;;;;;;;;;5028279;28;20058;-60
2024/02/11 06:48:15;;;;;;;;;;;;;;;;;;5028954;28;20045;-60
2024/02/11 06:50:45;;;;;;;0.65;0.65;;;;;;;;;;5026987;28;20286;-60
2024/02/11 06:53:13;;;;;;;0.60;0.60;;;;;;;;;;5026872;28;20041;-61
2024/02/11 06:55:42;;;;;;;0.70;0.70;;;;;;;;;;5025885;28;20076;-62
2024/02/11 06:58:10;;;;;;;0.70;0.60;;;;;;;;;;5027363;28;20120;-60
2024/02/11 07:00:39;;;;;;;0.50;0.50;;;;;;;;;;5028221;28;20053;-60
2024/02/11 07:03:10;;;;;;;0.70;0.70;;;;;;;;;;5028631;28;20079;-60
2024/02/11 07:05:41;;;;;;;0.60;0.60;;;;;;;;;;5026544;28;20057;-62
2024/02/11 07:08:11;;;;;;;0.60;0.60;;;;;;;;;;5025541;28;20541;-60
2024/02/11 07:10:40;;;;;;;0.70;0.70;;;;;;;;;;5022344;28;20049;-62
2024/02/11 07:13:09;;;;;;;0.55;0.55;;;;;;;;;;5024601;28;20049;-61
2024/02/11 07:15:38;;;;;;;0.57;0.57;;;;;;;;;;5023811;28;20073;-60
2024/02/11 07:18:07;;;;;;;0.50;0.50;;;;;;;;;;5026626;28;20505;-60
2024/02/11 07:20:36;;;;;;;0.60;0.60;;;;;;;;;;5030163;28;20076;-62
2024/02/11 07:23:05;;;;;;;0.60;0.60;;;;;;;;;;5027193;28;20062;-62
2024/02/11 07:25:37;;;;;;;0.60;0.60;;;;;;;;;;5026661;28;20045;-61
2024/02/11 07:28:06;;;;;;;0.60;0.60;;;;;;;;;;5024426;28;20488;-62
2024/02/11 07:30:34;;;;;;;0.60;0.60;;;;;;;;;;5024655;28;20165;-62
2024/02/11 07:33:03;;;;;;;0.60;0.60;;;;;;;;;;5026624;28;20045;-62
2024/02/11 07:35:31;;;;;;;0.70;0.70;;;;;;;;;;5026590;28;20049;-65
2024/02/11 07:38:02;;;;;;;0.60;0.60;;;;;;;;;;5024537;28;20069;-60
2024/02/11 07:40:32;;;;;;;0.70;0.70;;;;;;;;;;5023972;28;20407;-59
2024/02/11 07:43:01;;;;;;;0.90;0.68;;;;;;;;;;5028865;28;20127;-64
2024/02/11 07:45:30;;;;;;;0.52;0.52;;;;;;;;;;5027515;28;20057;-63
2024/02/11 07:47:58;;;;;;;0.70;0.70;;;;;;;;;;5028218;28;20365;-65
2024/02/11 07:50:27;;;;;;;1.02;0.95;;;;;;;;;;5026012;28;20042;-60
2024/02/11 07:52:56;;;;;;;0.73;0.73;;;;;;;;;;5028832;28;20136;-61
2024/02/11 07:55:25;;;;;;;0.80;0.80;;;;;;;;;;5016627;28;20047;-63
2024/02/11 07:57:54;;;;;;;0.80;0.70;;;;;;;;;;5026672;28;20103;-62
2024/02/11 08:00:24;;;;;;;0.70;0.70;;;;;;;;;;5026355;28;20061;-63
2024/02/11 08:02:52;;;;;;;0.70;0.70;;;;;;;;;;5029374;28;20470;-61
2024/02/11 08:05:22;;;;;;;0.60;0.60;;;;;;;;;;5027383;28;20644;-61
2024/02/11 08:07:52;;;;;;;0.77;0.77;;;;;;;;;;5028548;28;20049;-61
2024/02/11 08:10:22;;;;;;;0.68;0.68;;;;;;;;;;5027036;28;20052;-69
2024/02/11 08:12:52;;;;;;;1.00;0.80;;;;;;;;;;5026821;28;20061;-64
2024/02/11 08:15:20;;;;;;;0.85;0.80;;;;;;;;;;5024212;28;20554;-60
2024/02/11 08:17:51;;;;;;;0.70;0.70;;;;;;;;;;5027426;28;20056;-62
2024/02/11 08:20:19;;;;;;;1.80;0.75;;;;;;;;;;5024344;28;20128;-62
2024/02/11 08:22:49;;;;;;;1.00;0.90;;;;;;;;;;5027238;28;20129;-61
2024/02/11 08:25:17;;;;;;;0.93;0.93;;;;;;;;;;5022926;28;20061;-64
2024/02/11 08:27:46;;;;;;;0.90;0.90;;;;;;;;;;5027027;28;20053;-64
2024/02/11 08:30:15;;;;;;;0.80;0.80;;;;;;;;;;5026626;28;20081;-60
2024/02/11 08:32:44;;;;;;;0.80;0.80;;;;;;;;;;5024930;28;20045;-62
2024/02/11 08:35:14;;;;;;;0.88;0.80;;;;;;;;;;5025370;28;20049;-62
2024/02/11 08:37:43;;;;;;;1.00;1.00;;;;;;;;;;5028155;28;20434;-63
2024/02/11 08:40:12;;;;;;;0.88;0.88;;;;;;;;;;5025225;28;20141;-61
2024/02/11 08:42:41;;;;;;;1.45;1.08;;;;;;;;;;5031746;28;20099;-62
2024/02/11 08:45:10;;;;;;;1.08;0.98;;;;;;;;;;5029836;28;20462;-62
2024/02/11 08:47:38;;;;;;;2.00;1.23;;;;;;;;;;5029441;28;20045;-61
2024/02/11 08:50:10;;;;;;;1.20;1.10;;;;;;;;;;5026593;28;20045;-62
2024/02/11 08:52:42;;;;;;;1.20;1.10;;;;;;;;;;5029472;28;20170;-60
2024/02/11 08:55:11;;;;;;;1.02;0.93;;;;;;;;;;5026677;28;20072;-63
2024/02/11 08:57:40;;;;;;;1.20;1.10;;;;;;;;;;5027824;28;20454;-62
2024/02/11 09:00:14;;;;;;;0.95;0.95;;;;;;;;;;5023582;28;20502;-64
2024/02/11 09:02:43;;;;;;;1.25;1.13;;;;;;;;;;5028291;28;20053;-64
2024/02/11 09:05:12;;;;;;;1.25;1.15;;;;;;;;;;5029062;28;20056;-62
2024/02/11 09:07:43;;;;;;;1.25;1.15;;;;;;;;;;5028974;28;20145;-63
2024/02/11 09:10:14;;;;;;;1.30;1.10;;;;;;;;;;5025523;28;20517;-61
2024/02/11 09:12:43;;;;;;;1.15;1.05;;;;;;;;;;5028723;28;20434;-61
2024/02/11 09:15:15;;;;;;;1.17;1.08;;;;;;;;;;5025897;28;20254;-62
2024/02/11 09:17:46;;;;;;;1.88;1.05;;;;;;;;;;5027995;28;20049;-60
2024/02/11 09:20:18;;;;;;;1.30;1.20;;;;;;;;;;5028704;28;20049;-62
2024/02/11 09:22:48;;;;;;;1.23;1.13;;;;;;;;;;5028559;28;20052;-64
2024/02/11 09:25:17;;;;;;;1.45;1.05;;;;;;;;;;5028138;28;20103;-62
2024/02/11 09:27:46;;;;;;;1.15;1.00;;;;;;;;;;5028309;28;20491;-60
2024/02/11 09:30:17;;;;;;;1.52;1.40;;;;;;;;;;5026123;28;20057;-61
2024/02/11 09:32:46;;;;;;;1.27;1.17;;;;;;;;;;5024781;28;20053;-65
2024/02/11 09:35:17;;;;;;;1.30;1.20;;;;;;;;;;5024798;28;20207;-63
2024/02/11 09:37:45;;;;;;;2.75;1.50;;;;;;;;;;5024424;28;20069;-63
2024/02/11 09:40:17;;;;;;;1.60;1.50;;;;;;;;;;5027448;28;20123;-60
2024/02/11 09:42:47;;;;;;;2.35;1.23;;;;;;;;;;5027638;28;20049;-63
2024/02/11 09:45:16;;;;;;;1.50;1.40;;;;;;;;;;5027957;28;20041;-65
2024/02/11 09:47:49;;;;;;;1.88;1.30;;;;;;;;;;5028922;28;20134;-62
2024/02/11 09:50:20;;;;;;;1.38;1.27;;;;;;;;;;5023842;28;20132;-64
2024/02/11 09:52:50;;;;;;;1.50;1.40;;;;;;;;;;5026228;28;20111;-61
2024/02/11 09:55:20;;;;;;;1.20;1.13;;;;;;;;;;5027716;28;20046;-62
2024/02/11 09:57:50;;;;;;;1.80;1.48;;;;;;;;;;5027438;28;20075;-63
2024/02/11 10:00:20;;;;;;;1.42;1.33;;;;;;;;;;5019503;28;20053;-65
2024/02/11 10:02:48;;;;;;;1.55;1.33;;;;;;;;;;5027937;28;20051;-63
2024/02/11 10:05:18;;;;;;;1.50;1.40;;;;;;;;;;5027992;28;20053;-61
2024/02/11 10:07:47;;;;;;;1.73;1.50;;;;;;;;;;5025925;28;20091;-61
2024/02/11 10:10:15;;;;;;;2.08;1.50;;;;;;;;;;5027229;28;20046;-63
2024/02/11 10:12:47;;;;;;;2.15;1.40;;;;;;;;;;5027629;28;20166;-61
2024/02/11 10:15:16;;;;;;;1.58;1.30;;;;;;;;;;5017938;28;20057;-61
2024/02/11 10:17:47;;;;;;;1.85;1.48;;;;;;;;;;5026179;28;20050;-62
2024/02/11 10:20:17;;;;;;;1.88;1.58;;;;;;;;;;5024813;28;20058;-62
2024/02/11 10:22:46;;;;;;;2.75;1.73;;;;;;;;;;5026079;28;20397;-63
2024/02/11 10:25:16;;;;;;;1.98;1.67;;;;;;;;;;5017567;28;20495;-65
2024/02/11 10:27:44;;;;;;;3.28;1.85;;;;;;;;;;5026768;28;20494;-67
2024/02/11 10:30:15;;;;;;;2.10;1.80;;;;;;;;;;5026673;28;20049;-68
2024/02/11 10:32:43;;;;;;;1.63;1.35;;;;;;;;;;5027441;28;20060;-62
2024/02/11 10:35:14;;;;;;;3.15;1.80;;;;;;;;;;5025322;28;20045;-62
2024/02/11 10:37:45;;;;;;;1.92;1.40;;;;;;;;;;5024780;28;20049;-62
2024/02/11 10:40:19;;;;;;;2.22;1.73;;;;;;;;;;5027738;28;20060;-61
2024/02/11 10:42:50;;;;;;;2.88;1.58;;;;;;;;;;5027732;28;20049;-62
2024/02/11 10:45:20;;;;;;;2.40;1.80;;;;;;;;;;5025808;28;20041;-63
2024/02/11 10:47:50;;;;;;;1.80;1.60;;;;;;;;;;5027770;28;20046;-65
2024/02/11 10:50:18;;;;;;;3.72;1.80;;;;;;;;;;5024759;28;20095;-62
2024/02/11 10:52:49;;;;;;;3.38;1.95;;;;;;;;;;5026416;28;20517;-61
2024/02/11 10:55:19;;;;;;;3.40;2.22;;;;;;;;;;5028138;28;20053;-60
2024/02/11 10:57:52;;;;;;;5.15;1.52;;;;;;;;;;5023995;28;21196;-65
2024/02/11 11:00:22;;;;;;;3.00;1.83;;;;;;;;;;5023891;28;20521;-62
2024/02/11 11:02:55;;;;;;;2.65;2.10;;;;;;;;;;5026280;28;20049;-62
2024/02/11 11:05:26;;;;;;;1.67;1.45;;;;;;;;;;5023475;28;20072;-65
2024/02/11 11:07:56;;;;;;;3.60;2.08;;;;;;;;;;5026538;28;20060;-64
2024/02/11 11:10:29;;;;;;;2.67;1.70;;;;;;;;;;5026323;28;20164;-62
2024/02/11 11:12:58;;;;;;;3.88;1.88;;;;;;;;;;5027441;28;20167;-64
2024/02/11 11:15:31;;;;;;;3.97;2.10;;;;;;;;;;5023877;28;20144;-61
2024/02/11 11:18:00;;;;;;;4.82;2.22;;;;;;;;;;5024634;28;20068;-60
2024/02/11 11:20:29;;;;;;;5.75;1.73;;;;;;;;;;5025806;28;20428;-62
2024/02/11 11:22:58;;;;;;;3.53;1.60;;;;;;;;;;5022345;28;20136;-63
2024/02/11 11:25:31;;;;;;;2.33;1.60;;;;;;;;;;5022350;28;20045;-61
2024/02/11 11:28:06;;;;;;;2.75;1.80;;;;;;;;;;5019406;28;20569;-61
2024/02/11 11:30:36;;;;;;;4.20;1.83;;;;;;;;;;5028069;28;20053;-62
2024/02/11 11:33:05;;;;;;;2.40;2.00;;;;;;;;;;5029837;28;20395;-64
2024/02/11 11:35:34;;;;;;;2.20;1.73;;;;;;;;;;5020826;28;20643;-62
2024/02/11 11:38:03;;;;;;;2.97;1.70;;;;;;;;;;5025549;28;20053;-62
2024/02/11 11:40:35;;;;;;;3.65;1.63;;;;;;;;;;5022746;28;20046;-60
2024/02/11 11:43:13;;;;;;;2.30;1.60;;;;;;;;;;5025549;28;20052;-64
2024/02/11 11:45:52;;;;;;;5.90;2.17;;;;;;;;;;5021021;28;20044;-61
2024/02/11 11:48:21;;;;;;;2.85;2.00;;;;;;;;;;5019213;28;20501;-65
2024/02/11 11:50:56;;;;;;;3.05;1.70;;;;;;;;;;5022774;28;20128;-61
2024/02/11 11:53:25;;;;;;;2.85;2.00;;;;;;;;;;5022359;28;20156;-65
2024/02/11 11:55:56;;;;;;;3.42;1.90;;;;;;;;;;5025820;28;20045;-65
2024/02/11 11:58:25;;;;;;;1.98;1.50;;;;;;;;;;5024460;28;20038;-62
2024/02/11 12:00:59;;;;;;;2.03;1.60;;;;;;;;;;5024112;28;20056;-61
2024/02/11 12:03:28;;;;;;;2.45;1.80;;;;;;;;;;5022011;28;20049;-59
2024/02/11 12:05:56;;;;;;;3.70;2.55;;;;;;;;;;5026891;28;20068;-61
2024/02/11 12:08:25;;;;;;;2.38;1.50;;;;;;;;;;5019864;28;20399;-60
2024/02/11 12:10:57;;;;;;;4.68;2.28;;;;;;;;;;5026216;28;20056;-61
2024/02/11 12:13:27;;;;;;;3.58;1.85;;;;;;;;;;5030491;28;20364;-62
2024/02/11 12:15:56;;;;;;;2.45;1.85;;;;;;;;;;5024859;28;20045;-60
2024/02/11 12:18:26;;;;;;;3.80;1.90;;;;;;;;;;5030579;28;20049;-62
2024/02/11 12:20:55;;;;;;;2.10;1.67;;;;;;;;;;5029451;28;20045;-61
2024/02/11 12:23:24;;;;;;;3.80;1.85;;;;;;;;;;5028417;28;20045;-62
2024/02/11 12:25:53;;;;;;;4.72;1.90;;;;;;;;;;5028263;28;20092;-61
2024/02/11 12:28:25;;;;;;;4.72;2.08;;;;;;;;;;5027734;28;20129;-60
2024/02/11 12:31:04;;;;;;;2.63;1.85;;;;;;;;;;5024157;28;20076;-65
2024/02/11 12:33:37;;;;;;;2.75;1.63;;;;;;;;;;5027524;28;20162;-65
2024/02/11 12:36:12;;;;;;;4.70;2.00;;;;;;;;;;5030427;28;20626;-60
2024/02/11 12:38:41;;;;;;;2.17;1.60;;;;;;;;;;5024903;28;20048;-61
2024/02/11 12:41:11;;;;;;;5.03;1.80;;;;;;;;;;5028488;28;20583;-62
2024/02/11 12:43:40;;;;;;;2.88;1.80;;;;;;;;;;5029761;28;20639;-62
2024/02/11 12:46:09;;;;;;;2.08;1.60;;;;;;;;;;5027130;28;20056;-62
2024/02/11 12:48:40;;;;;;;2.58;1.63;;;;;;;;;;5030077;28;20057;-62
2024/02/11 12:51:10;;;;;;;4.32;2.05;;;;;;;;;;5028553;28;20128;-64
2024/02/11 12:53:39;;;;;;;3.92;1.80;;;;;;;;;;5028346;28;20622;-61
2024/02/11 12:56:10;;;;;;;3.17;1.60;;;;;;;;;;5027606;28;20050;-64
2024/02/11 12:58:39;;;;;;;2.65;1.67;;;;;;;;;;5028386;28;20041;-63
2024/02/11 13:01:09;;;;;;;3.58;1.42;;;;;;;;;;5025506;28;20056;-62
2024/02/11 13:03:39;;;;;;;2.50;1.80;;;;;;;;;;5028181;28;20056;-62
2024/02/11 13:06:08;;;;;;;3.17;1.60;;;;;;;;;;5029102;28;20080;-64
2024/02/11 13:08:37;;;;;;;2.63;1.60;;;;;;;;;;5027948;28;20100;-61
2024/02/11 13:11:06;;;;;;;2.90;1.42;;;;;;;;;;5026214;28;20583;-59
2024/02/11 13:13:35;;;;;;;1.98;1.58;;;;;;;;;;5030661;28;20053;-60
2024/02/11 13:16:05;;;;;;;2.58;1.55;;;;;;;;;;5026726;28;20053;-63
2024/02/11 13:18:35;;;;;;;2.97;1.52;;;;;;;;;;5026781;28;20132;-61
2024/02/11 13:21:06;;;;;;;3.78;1.77;;;;;;;;;;5028569;28;20071;-63
2024/02/11 13:23:35;;;;;;;2.08;1.42;;;;;;;;;;5027991;28;20053;-59
2024/02/11 13:26:04;;;;;;;1.90;1.40;;;;;;;;;;5026488;28;20081;-60
2024/02/11 13:28:33;;;;;;;2.67;1.48;;;;;;;;;;5028833;28;20057;-59
2024/02/11 13:31:02;;;;;;;2.25;1.73;;;;;;;;;;5028026;28;20045;-62
2024/02/11 13:33:47;;;;;;;2.13;1.50;;;;;;;;;;5026011;28;20054;-61
2024/02/11 13:36:17;;;;;;;3.13;1.80;;;;;;;;;;5031347;28;20445;-61
2024/02/11 13:38:45;;;;;;;3.00;1.60;;;;;;;;;;5024563;28;20809;-63
2024/02/11 13:41:13;;;;;;;3.08;1.92;;;;;;;;;;5026625;28;20490;-67
2024/02/11 13:43:42;;;;;;;2.13;1.58;;;;;;;;;;5027555;28;20045;-62
2024/02/11 13:46:12;;;;;;;3.42;1.50;;;;;;;;;;5029222;28;20482;-63
2024/02/11 13:48:42;;;;;;;2.15;1.60;;;;;;;;;;5027615;28;20056;-61
2024/02/11 13:51:12;;;;;;;1.95;1.70;;;;;;;;;;5029078;28;20056;-60
2024/02/11 13:53:42;;;;;;;1.67;1.42;;;;;;;;;;5028897;28;20052;-62
2024/02/11 13:56:11;;;;;;;2.15;1.42;;;;;;;;;;5026602;28;20316;-62
2024/02/11 13:58:41;;;;;;;3.53;1.90;;;;;;;;;;5025779;28;20054;-61
2024/02/11 14:01:12;;;;;;;1.85;1.63;;;;;;;;;;5045337;28;20061;-65
2024/02/11 14:03:42;;;;;;;1.75;1.65;;;;;;;;;;5025605;28;20050;-61
2024/02/11 14:06:13;;;;;;;2.72;1.70;;;;;;;;;;5025459;28;20049;-62
2024/02/11 14:08:45;;;;;;;2.28;1.63;;;;;;;;;;5026889;28;20050;-61
2024/02/11 14:11:14;;;;;;;3.58;1.83;;;;;;;;;;5025355;28;20470;-62
2024/02/11 14:13:43;;;;;;;1.88;1.67;;;;;;;;;;5026997;28;20509;-60
2024/02/11 14:16:12;;;;;;;2.17;1.70;;;;;;;;;;5028541;28;20068;-60
2024/02/11 14:18:40;;;;;;;1.92;1.70;;;;;;;;;;5025742;28;20053;-62
2024/02/11 14:21:09;;;;;;;1.90;1.60;;;;;;;;;;5027086;28;20072;-63
2024/02/11 14:23:38;;;;;;;1.65;1.55;;;;;;;;;;5029060;28;20108;-62
2024/02/11 14:26:10;;;;;;;2.05;1.70;;;;;;;;;;5027333;28;20049;-59
2024/02/11 14:28:39;;;;;;;2.25;1.67;;;;;;;;;;5029002;28;20106;-61
2024/02/11 14:31:08;;;;;;;1.45;1.35;;;;;;;;;;5029413;28;20053;-63
2024/02/11 14:33:37;;;;;;;1.58;1.42;;;;;;;;;;5023533;28;20095;-64
2024/02/11 14:36:07;;;;;;;2.33;1.67;;;;;;;;;;5025760;28;20045;-60
2024/02/11 14:38:38;;;;;;;2.53;1.65;;;;;;;;;;5027756;28;20057;-65
2024/02/11 14:41:08;;;;;;;2.28;2.08;;;;;;;;;;5026976;28;20049;-60
2024/02/11 14:43:40;;;;;;;3.42;1.60;;;;;;;;;;5020001;28;20056;-64
2024/02/11 14:46:09;;;;;;;1.95;1.70;;;;;;;;;;5025460;28;20095;-61
2024/02/11 14:48:37;;;;;;;2.22;1.80;;;;;;;;;;5028450;28;20071;-59
2024/02/11 14:51:07;;;;;;;2.05;1.70;;;;;;;;;;5028541;28;20061;-59
2024/02/11 14:53:36;;;;;;;1.63;1.52;;;;;;;;;;5029153;28;20049;-60
2024/02/11 14:56:05;;;;;;;1.35;1.25;;;;;;;;;;5027519;28;20061;-61
2024/02/11 14:58:32;;;;;;;3.30;1.60;;;;;;;;;;5026537;28;20049;-60